sensor_id;sensor_type;location;lat;lon;timestamp;temperature;humidity
65826;DHT22;52586;-43.152;172.732;2023-07-30T00:01:23;12.40;58.00
65826;DHT22;52586;-43.152;172.732;2023-07-30T00:03:54;12.40;58.10
65826;DHT22;52586;-43.152;172.732;2023-07-30T00:06:24;12.40;58.10
65826;DHT22;52586;-43.152;172.732;2023-07-30T00:08:57;12.50;58.20
65826;DHT22;52586;-43.152;172.732;2023-07-30T00:11:27;12.50;58.20
65826;DHT22;52586;-43.152;172.732;2023-07-30T00:13:58;12.50;58.20
65826;DHT22;52586;-43.152;172.732;2023-07-30T00:16:29;12.50;58.20
65826;DHT22;52586;-43.152;172.732;2023-07-30T00:18:59;12.50;58.30
65826;DHT22;52586;-43.152;172.732;2023-07-30T00:21:30;12.60;58.30
65826;DHT22;52586;-43.152;172.732;2023-07-30T00:24:02;12.60;58.30
65826;DHT22;52586;-43.152;172.732;2023-07-30T00:26:33;12.60;58.30
65826;DHT22;52586;-43.152;172.732;2023-07-30T00:29:05;12.60;58.20
65826;DHT22;52586;-43.152;172.732;2023-07-30T00:31:36;12.70;58.30
65826;DHT22;52586;-43.152;172.732;2023-07-30T00:34:07;12.70;58.40
65826;DHT22;52586;-43.152;172.732;2023-07-30T00:36:37;12.70;58.40
65826;DHT22;52586;-43.152;172.732;2023-07-30T00:39:10;12.70;58.50
65826;DHT22;52586;-43.152;172.732;2023-07-30T00:41:40;12.70;58.60
65826;DHT22;52586;-43.152;172.732;2023-07-30T00:44:11;12.80;58.60
65826;DHT22;52586;-43.152;172.732;2023-07-30T00:46:42;12.80;58.50
65826;DHT22;52586;-43.152;172.732;2023-07-30T00:49:12;12.80;58.60
65826;DHT22;52586;-43.152;172.732;2023-07-30T00:51:43;12.80;58.60
65826;DHT22;52586;-43.152;172.732;2023-07-30T00:54:16;12.90;58.70
65826;DHT22;52586;-43.152;172.732;2023-07-30T00:56:50;12.90;58.70
65826;DHT22;52586;-43.152;172.732;2023-07-30T00:59:21;12.90;58.70
65826;DHT22;52586;-43.152;172.732;2023-07-30T01:01:53;12.90;58.70
65826;DHT22;52586;-43.152;172.732;2023-07-30T01:04:23;13.00;58.70
65826;DHT22;52586;-43.152;172.732;2023-07-30T01:06:54;13.00;58.80
65826;DHT22;52586;-43.152;172.732;2023-07-30T01:09:26;13.00;58.90
65826;DHT22;52586;-43.152;172.732;2023-07-30T01:11:57;13.10;59.00
65826;DHT22;52586;-43.152;172.732;2023-07-30T01:14:28;13.10;59.00
65826;DHT22;52586;-43.152;172.732;2023-07-30T01:16:59;13.10;59.00
65826;DHT22;52586;-43.152;172.732;2023-07-30T01:19:30;13.20;59.00
65826;DHT22;52586;-43.152;172.732;2023-07-30T01:22:02;13.20;59.00
65826;DHT22;52586;-43.152;172.732;2023-07-30T01:24:33;13.20;59.00
65826;DHT22;52586;-43.152;172.732;2023-07-30T01:27:05;13.20;59.10
65826;DHT22;52586;-43.152;172.732;2023-07-30T01:29:42;13.30;59.10
65826;DHT22;52586;-43.152;172.732;2023-07-30T01:32:13;13.30;59.10
65826;DHT22;52586;-43.152;172.732;2023-07-30T01:34:45;13.30;59.10
65826;DHT22;52586;-43.152;172.732;2023-07-30T01:37:19;13.40;59.20
65826;DHT22;52586;-43.152;172.732;2023-07-30T01:39:51;13.40;59.80
65826;DHT22;52586;-43.152;172.732;2023-07-30T01:42:22;13.40;59.20
65826;DHT22;52586;-43.152;172.732;2023-07-30T01:44:58;13.40;59.30
65826;DHT22;52586;-43.152;172.732;2023-07-30T01:47:28;13.50;59.30
65826;DHT22;52586;-43.152;172.732;2023-07-30T01:49:59;13.50;59.30
65826;DHT22;52586;-43.152;172.732;2023-07-30T01:52:32;13.60;59.30
65826;DHT22;52586;-43.152;172.732;2023-07-30T01:55:02;13.60;59.20
65826;DHT22;52586;-43.152;172.732;2023-07-30T01:57:33;13.60;59.20
65826;DHT22;52586;-43.152;172.732;2023-07-30T02:00:04;13.70;59.30
65826;DHT22;52586;-43.152;172.732;2023-07-30T02:02:35;13.70;59.30
65826;DHT22;52586;-43.152;172.732;2023-07-30T02:05:06;13.70;59.30
65826;DHT22;52586;-43.152;172.732;2023-07-30T02:07:39;13.70;59.30
65826;DHT22;52586;-43.152;172.732;2023-07-30T02:10:09;13.70;59.20
65826;DHT22;52586;-43.152;172.732;2023-07-30T02:12:40;13.80;59.30
65826;DHT22;52586;-43.152;172.732;2023-07-30T02:15:11;13.80;59.30
65826;DHT22;52586;-43.152;172.732;2023-07-30T02:17:41;13.80;59.30
65826;DHT22;52586;-43.152;172.732;2023-07-30T02:20:12;13.90;59.30
65826;DHT22;52586;-43.152;172.732;2023-07-30T02:22:44;13.90;59.30
65826;DHT22;52586;-43.152;172.732;2023-07-30T02:25:15;13.90;59.20
65826;DHT22;52586;-43.152;172.732;2023-07-30T02:27:46;14.00;59.20
65826;DHT22;52586;-43.152;172.732;2023-07-30T02:30:17;14.00;59.20
65826;DHT22;52586;-43.152;172.732;2023-07-30T02:32:48;14.00;59.20
65826;DHT22;52586;-43.152;172.732;2023-07-30T02:35:18;14.10;59.30
65826;DHT22;52586;-43.152;172.732;2023-07-30T02:37:51;14.10;59.30
65826;DHT22;52586;-43.152;172.732;2023-07-30T02:40:21;14.10;59.30
65826;DHT22;52586;-43.152;172.732;2023-07-30T02:42:52;14.20;59.30
65826;DHT22;52586;-43.152;172.732;2023-07-30T02:45:23;14.20;59.40
65826;DHT22;52586;-43.152;172.732;2023-07-30T02:47:53;14.20;59.50
65826;DHT22;52586;-43.152;172.732;2023-07-30T02:50:24;14.30;59.50
65826;DHT22;52586;-43.152;172.732;2023-07-30T02:52:56;14.30;60.00
65826;DHT22;52586;-43.152;172.732;2023-07-30T02:55:27;14.30;59.50
65826;DHT22;52586;-43.152;172.732;2023-07-30T02:57:58;14.40;59.50
65826;DHT22;52586;-43.152;172.732;2023-07-30T03:00:28;14.40;59.60
65826;DHT22;52586;-43.152;172.732;2023-07-30T03:02:59;14.50;59.60
65826;DHT22;52586;-43.152;172.732;2023-07-30T03:05:30;14.50;59.60
65826;DHT22;52586;-43.152;172.732;2023-07-30T03:08:02;14.50;59.60
65826;DHT22;52586;-43.152;172.732;2023-07-30T03:10:33;14.50;59.60
65826;DHT22;52586;-43.152;172.732;2023-07-30T03:13:03;14.60;59.70
65826;DHT22;52586;-43.152;172.732;2023-07-30T03:15:34;14.60;59.60
65826;DHT22;52586;-43.152;172.732;2023-07-30T03:18:05;14.70;59.70
65826;DHT22;52586;-43.152;172.732;2023-07-30T03:20:35;14.70;59.50
65826;DHT22;52586;-43.152;172.732;2023-07-30T03:23:08;14.70;59.40
65826;DHT22;52586;-43.152;172.732;2023-07-30T03:25:38;14.70;59.40
65826;DHT22;52586;-43.152;172.732;2023-07-30T03:28:09;14.80;59.40
65826;DHT22;52586;-43.152;172.732;2023-07-30T03:30:40;14.80;59.30
65826;DHT22;52586;-43.152;172.732;2023-07-30T03:33:10;14.90;59.30
65826;DHT22;52586;-43.152;172.732;2023-07-30T03:35:41;14.90;59.30
65826;DHT22;52586;-43.152;172.732;2023-07-30T03:38:13;14.90;59.30
65826;DHT22;52586;-43.152;172.732;2023-07-30T03:40:44;14.90;59.20
65826;DHT22;52586;-43.152;172.732;2023-07-30T03:43:14;15.00;59.30
65826;DHT22;52586;-43.152;172.732;2023-07-30T03:45:45;15.00;59.30
65826;DHT22;52586;-43.152;172.732;2023-07-30T03:48:16;15.00;59.20
65826;DHT22;52586;-43.152;172.732;2023-07-30T03:50:47;15.00;59.20
65826;DHT22;52586;-43.152;172.732;2023-07-30T03:53:19;15.10;59.30
65826;DHT22;52586;-43.152;172.732;2023-07-30T03:55:50;15.10;59.30
65826;DHT22;52586;-43.152;172.732;2023-07-30T03:58:21;15.10;59.20
65826;DHT22;52586;-43.152;172.732;2023-07-30T04:00:51;15.20;59.20
65826;DHT22;52586;-43.152;172.732;2023-07-30T04:03:22;15.20;59.20
65826;DHT22;52586;-43.152;172.732;2023-07-30T04:05:51;15.20;59.10
65826;DHT22;52586;-43.152;172.732;2023-07-30T04:08:23;15.30;59.80
65826;DHT22;52586;-43.152;172.732;2023-07-30T04:10:54;15.30;59.10
65826;DHT22;52586;-43.152;172.732;2023-07-30T04:13:25;15.30;59.10
65826;DHT22;52586;-43.152;172.732;2023-07-30T04:15:55;15.30;59.00
65826;DHT22;52586;-43.152;172.732;2023-07-30T04:18:26;15.30;58.90
65826;DHT22;52586;-43.152;172.732;2023-07-30T04:20:57;15.40;58.90
65826;DHT22;52586;-43.152;172.732;2023-07-30T04:23:29;15.40;58.80
65826;DHT22;52586;-43.152;172.732;2023-07-30T04:26:00;15.40;58.70
65826;DHT22;52586;-43.152;172.732;2023-07-30T04:28:30;15.50;58.70
65826;DHT22;52586;-43.152;172.732;2023-07-30T04:31:01;15.50;58.60
65826;DHT22;52586;-43.152;172.732;2023-07-30T04:33:32;15.60;58.60
65826;DHT22;52586;-43.152;172.732;2023-07-30T04:36:02;15.60;58.50
65826;DHT22;52586;-43.152;172.732;2023-07-30T04:38:36;15.60;58.50
65826;DHT22;52586;-43.152;172.732;2023-07-30T04:41:07;15.70;58.50
65826;DHT22;52586;-43.152;172.732;2023-07-30T04:43:37;15.70;58.50
65826;DHT22;52586;-43.152;172.732;2023-07-30T04:46:08;15.70;58.60
65826;DHT22;52586;-43.152;172.732;2023-07-30T04:48:39;15.70;58.50
65826;DHT22;52586;-43.152;172.732;2023-07-30T04:51:09;15.70;58.50
65826;DHT22;52586;-43.152;172.732;2023-07-30T04:53:42;15.70;58.50
65826;DHT22;52586;-43.152;172.732;2023-07-30T04:56:12;15.80;58.60
65826;DHT22;52586;-43.152;172.732;2023-07-30T04:58:43;15.80;58.60
65826;DHT22;52586;-43.152;172.732;2023-07-30T05:01:14;15.80;58.50
65826;DHT22;52586;-43.152;172.732;2023-07-30T05:03:44;15.80;58.40
65826;DHT22;52586;-43.152;172.732;2023-07-30T05:06:15;15.80;58.40
65826;DHT22;52586;-43.152;172.732;2023-07-30T05:08:47;15.80;58.40
65826;DHT22;52586;-43.152;172.732;2023-07-30T05:11:18;15.80;58.40
65826;DHT22;52586;-43.152;172.732;2023-07-30T05:13:49;15.80;58.40
65826;DHT22;52586;-43.152;172.732;2023-07-30T05:16:19;15.80;58.30
65826;DHT22;52586;-43.152;172.732;2023-07-30T05:18:50;15.80;58.30
65826;DHT22;52586;-43.152;172.732;2023-07-30T05:21:21;15.80;58.30
65826;DHT22;52586;-43.152;172.732;2023-07-30T05:23:53;15.80;58.30
65826;DHT22;52586;-43.152;172.732;2023-07-30T05:26:24;15.80;58.30
65826;DHT22;52586;-43.152;172.732;2023-07-30T05:28:54;15.80;58.30
65826;DHT22;52586;-43.152;172.732;2023-07-30T05:31:25;15.80;58.20
65826;DHT22;52586;-43.152;172.732;2023-07-30T05:33:56;15.80;58.20
65826;DHT22;52586;-43.152;172.732;2023-07-30T05:36:26;15.80;58.20
65826;DHT22;52586;-43.152;172.732;2023-07-30T05:38:59;15.80;58.20
65826;DHT22;52586;-43.152;172.732;2023-07-30T05:41:29;15.80;58.10
65826;DHT22;52586;-43.152;172.732;2023-07-30T05:44:00;15.80;58.10
65826;DHT22;52586;-43.152;172.732;2023-07-30T05:46:31;15.80;58.00
65826;DHT22;52586;-43.152;172.732;2023-07-30T05:49:01;15.80;57.90
65826;DHT22;52586;-43.152;172.732;2023-07-30T05:51:32;15.80;57.80
65826;DHT22;52586;-43.152;172.732;2023-07-30T05:54:05;15.80;57.90
65826;DHT22;52586;-43.152;172.732;2023-07-30T05:56:35;15.80;57.90
65826;DHT22;52586;-43.152;172.732;2023-07-30T05:59:06;15.80;57.90
65826;DHT22;52586;-43.152;172.732;2023-07-30T06:01:36;15.70;57.90
65826;DHT22;52586;-43.152;172.732;2023-07-30T06:04:07;15.70;57.80
65826;DHT22;52586;-43.152;172.732;2023-07-30T06:06:38;15.70;57.80
65826;DHT22;52586;-43.152;172.732;2023-07-30T06:09:10;15.70;57.80
65826;DHT22;52586;-43.152;172.732;2023-07-30T06:11:41;15.70;57.80
65826;DHT22;52586;-43.152;172.732;2023-07-30T06:14:11;15.70;57.70
65826;DHT22;52586;-43.152;172.732;2023-07-30T06:16:42;15.70;57.70
65826;DHT22;52586;-43.152;172.732;2023-07-30T06:19:13;15.70;57.70
65826;DHT22;52586;-43.152;172.732;2023-07-30T06:21:43;15.70;57.60
65826;DHT22;52586;-43.152;172.732;2023-07-30T06:24:16;15.60;57.60
65826;DHT22;52586;-43.152;172.732;2023-07-30T06:26:46;15.60;57.60
65826;DHT22;52586;-43.152;172.732;2023-07-30T06:29:17;15.60;57.60
65826;DHT22;52586;-43.152;172.732;2023-07-30T06:31:48;15.60;57.60
65826;DHT22;52586;-43.152;172.732;2023-07-30T06:34:18;15.60;57.60
65826;DHT22;52586;-43.152;172.732;2023-07-30T06:36:49;15.60;57.60
65826;DHT22;52586;-43.152;172.732;2023-07-30T06:39:21;15.60;57.60
65826;DHT22;52586;-43.152;172.732;2023-07-30T06:41:52;15.60;57.60
65826;DHT22;52586;-43.152;172.732;2023-07-30T06:44:26;15.50;57.60
65826;DHT22;52586;-43.152;172.732;2023-07-30T06:46:57;15.50;57.70
65826;DHT22;52586;-43.152;172.732;2023-07-30T06:49:27;15.50;57.60
65826;DHT22;52586;-43.152;172.732;2023-07-30T06:51:58;15.50;57.70
65826;DHT22;52586;-43.152;172.732;2023-07-30T06:54:31;15.50;57.80
65826;DHT22;52586;-43.152;172.732;2023-07-30T06:57:01;15.50;58.30
65826;DHT22;52586;-43.152;172.732;2023-07-30T06:59:32;15.40;57.60
65826;DHT22;52586;-43.152;172.732;2023-07-30T07:02:02;15.50;57.60
65826;DHT22;52586;-43.152;172.732;2023-07-30T07:04:34;15.40;57.60
65826;DHT22;52586;-43.152;172.732;2023-07-30T07:07:05;15.40;57.60
65826;DHT22;52586;-43.152;172.732;2023-07-30T07:09:37;15.40;57.60
65826;DHT22;52586;-43.152;172.732;2023-07-30T07:12:09;15.30;57.60
65826;DHT22;52586;-43.152;172.732;2023-07-30T07:14:39;15.40;57.60
65826;DHT22;52586;-43.152;172.732;2023-07-30T07:17:10;15.30;57.50
65826;DHT22;52586;-43.152;172.732;2023-07-30T07:19:42;15.30;57.50
65826;DHT22;52586;-43.152;172.732;2023-07-30T07:22:12;15.30;57.50
65826;DHT22;52586;-43.152;172.732;2023-07-30T07:24:47;15.30;57.50
65826;DHT22;52586;-43.152;172.732;2023-07-30T07:27:20;15.30;57.50
65826;DHT22;52586;-43.152;172.732;2023-07-30T07:29:51;15.30;57.50
65826;DHT22;52586;-43.152;172.732;2023-07-30T07:32:22;15.30;57.50
65826;DHT22;52586;-43.152;172.732;2023-07-30T07:34:53;15.20;57.50
65826;DHT22;52586;-43.152;172.732;2023-07-30T07:37:23;15.20;57.50
65826;DHT22;52586;-43.152;172.732;2023-07-30T07:39:56;15.20;57.60
65826;DHT22;52586;-43.152;172.732;2023-07-30T07:42:27;15.20;57.50
65826;DHT22;52586;-43.152;172.732;2023-07-30T07:44:57;15.10;57.50
65826;DHT22;52586;-43.152;172.732;2023-07-30T07:47:28;15.10;57.50
65826;DHT22;52586;-43.152;172.732;2023-07-30T07:49:58;15.20;57.60
65826;DHT22;52586;-43.152;172.732;2023-07-30T07:52:29;15.10;57.50
65826;DHT22;52586;-43.152;172.732;2023-07-30T07:55:02;15.10;57.60
65826;DHT22;52586;-43.152;172.732;2023-07-30T07:57:32;15.10;57.50
65826;DHT22;52586;-43.152;172.732;2023-07-30T08:00:03;15.10;57.50
65826;DHT22;52586;-43.152;172.732;2023-07-30T08:02:34;15.10;57.50
65826;DHT22;52586;-43.152;172.732;2023-07-30T08:05:05;15.00;57.50
65826;DHT22;52586;-43.152;172.732;2023-07-30T08:07:36;15.00;57.40
65826;DHT22;52586;-43.152;172.732;2023-07-30T08:10:09;15.00;57.40
65826;DHT22;52586;-43.152;172.732;2023-07-30T08:12:40;15.00;57.50
65826;DHT22;52586;-43.152;172.732;2023-07-30T08:15:11;15.00;57.50
65826;DHT22;52586;-43.152;172.732;2023-07-30T08:17:41;15.00;57.50
65826;DHT22;52586;-43.152;172.732;2023-07-30T08:20:12;14.90;57.50
65826;DHT22;52586;-43.152;172.732;2023-07-30T08:22:43;14.90;57.40
65826;DHT22;52586;-43.152;172.732;2023-07-30T08:25:15;14.90;57.40
65826;DHT22;52586;-43.152;172.732;2023-07-30T08:27:46;14.90;57.50
65826;DHT22;52586;-43.152;172.732;2023-07-30T08:30:17;14.90;57.50
65826;DHT22;52586;-43.152;172.732;2023-07-30T08:32:47;14.90;57.60
65826;DHT22;52586;-43.152;172.732;2023-07-30T08:35:18;14.80;57.50
65826;DHT22;52586;-43.152;172.732;2023-07-30T08:37:49;14.80;57.60
65826;DHT22;52586;-43.152;172.732;2023-07-30T08:40:22;14.80;57.60
65826;DHT22;52586;-43.152;172.732;2023-07-30T08:42:53;14.80;57.60
65826;DHT22;52586;-43.152;172.732;2023-07-30T08:45:23;14.90;57.60
65826;DHT22;52586;-43.152;172.732;2023-07-30T08:47:57;14.80;57.50
65826;DHT22;52586;-43.152;172.732;2023-07-30T08:50:28;14.80;57.50
65826;DHT22;52586;-43.152;172.732;2023-07-30T08:52:59;14.80;57.50
65826;DHT22;52586;-43.152;172.732;2023-07-30T08:55:34;14.80;57.40
65826;DHT22;52586;-43.152;172.732;2023-07-30T08:58:05;14.80;57.50
65826;DHT22;52586;-43.152;172.732;2023-07-30T09:00:39;14.80;57.50
65826;DHT22;52586;-43.152;172.732;2023-07-30T09:03:13;14.80;57.50
65826;DHT22;52586;-43.152;172.732;2023-07-30T09:05:45;14.70;57.50
65826;DHT22;52586;-43.152;172.732;2023-07-30T09:08:16;14.70;57.50
65826;DHT22;52586;-43.152;172.732;2023-07-30T09:10:49;14.70;57.50
65826;DHT22;52586;-43.152;172.732;2023-07-30T09:13:22;14.70;57.50
65826;DHT22;52586;-43.152;172.732;2023-07-30T09:15:53;14.70;57.50
65826;DHT22;52586;-43.152;172.732;2023-07-30T09:18:23;14.70;57.50
65826;DHT22;52586;-43.152;172.732;2023-07-30T09:20:54;14.60;57.50
65826;DHT22;52586;-43.152;172.732;2023-07-30T09:23:25;14.60;57.50
65826;DHT22;52586;-43.152;172.732;2023-07-30T09:25:58;14.60;57.50
65826;DHT22;52586;-43.152;172.732;2023-07-30T09:28:32;14.60;57.50
65826;DHT22;52586;-43.152;172.732;2023-07-30T09:31:03;14.60;57.50
65826;DHT22;52586;-43.152;172.732;2023-07-30T09:33:35;14.60;57.50
65826;DHT22;52586;-43.152;172.732;2023-07-30T09:36:06;14.60;57.60
65826;DHT22;52586;-43.152;172.732;2023-07-30T09:38:41;14.60;57.50
65826;DHT22;52586;-43.152;172.732;2023-07-30T09:41:13;14.50;57.50
65826;DHT22;52586;-43.152;172.732;2023-07-30T09:43:45;14.50;57.50
65826;DHT22;52586;-43.152;172.732;2023-07-30T09:46:16;14.50;57.50
65826;DHT22;52586;-43.152;172.732;2023-07-30T09:48:46;14.50;58.10
65826;DHT22;52586;-43.152;172.732;2023-07-30T09:51:17;14.50;57.50
65826;DHT22;52586;-43.152;172.732;2023-07-30T09:53:48;14.50;57.50
65826;DHT22;52586;-43.152;172.732;2023-07-30T09:56:20;14.40;57.40
65826;DHT22;52586;-43.152;172.732;2023-07-30T09:58:51;14.40;57.50
65826;DHT22;52586;-43.152;172.732;2023-07-30T10:01:24;14.40;57.50
65826;DHT22;52586;-43.152;172.732;2023-07-30T10:03:57;14.40;57.50
65826;DHT22;52586;-43.152;172.732;2023-07-30T10:06:30;14.40;57.50
65826;DHT22;52586;-43.152;172.732;2023-07-30T10:09:03;14.40;57.50
65826;DHT22;52586;-43.152;172.732;2023-07-30T10:11:36;14.40;57.40
65826;DHT22;52586;-43.152;172.732;2023-07-30T10:14:07;14.40;57.50
65826;DHT22;52586;-43.152;172.732;2023-07-30T10:16:39;14.40;57.40
65826;DHT22;52586;-43.152;172.732;2023-07-30T10:19:10;14.40;57.40
65826;DHT22;52586;-43.152;172.732;2023-07-30T10:21:43;14.40;57.40
65826;DHT22;52586;-43.152;172.732;2023-07-30T10:24:14;14.40;57.40
65826;DHT22;52586;-43.152;172.732;2023-07-30T10:26:46;14.30;57.40
65826;DHT22;52586;-43.152;172.732;2023-07-30T10:29:18;14.30;57.40
65826;DHT22;52586;-43.152;172.732;2023-07-30T10:31:53;14.30;57.40
65826;DHT22;52586;-43.152;172.732;2023-07-30T10:34:26;14.30;57.40
65826;DHT22;52586;-43.152;172.732;2023-07-30T10:36:57;14.20;57.40
65826;DHT22;52586;-43.152;172.732;2023-07-30T10:39:30;14.20;57.40
65826;DHT22;52586;-43.152;172.732;2023-07-30T10:42:02;14.20;57.40
65826;DHT22;52586;-43.152;172.732;2023-07-30T10:44:34;14.20;57.40
65826;DHT22;52586;-43.152;172.732;2023-07-30T10:47:05;14.20;57.40
65826;DHT22;52586;-43.152;172.732;2023-07-30T10:49:37;14.20;57.40
65826;DHT22;52586;-43.152;172.732;2023-07-30T10:52:08;14.20;57.40
65826;DHT22;52586;-43.152;172.732;2023-07-30T10:54:39;14.20;57.40
65826;DHT22;52586;-43.152;172.732;2023-07-30T10:57:12;14.20;57.40
65826;DHT22;52586;-43.152;172.732;2023-07-30T10:59:43;14.20;57.40
65826;DHT22;52586;-43.152;172.732;2023-07-30T11:02:13;14.20;57.40
65826;DHT22;52586;-43.152;172.732;2023-07-30T11:04:45;14.10;57.40
65826;DHT22;52586;-43.152;172.732;2023-07-30T11:07:18;14.10;57.30
65826;DHT22;52586;-43.152;172.732;2023-07-30T11:09:59;14.10;57.30
65826;DHT22;52586;-43.152;172.732;2023-07-30T11:12:33;14.10;57.30
65826;DHT22;52586;-43.152;172.732;2023-07-30T11:15:04;14.10;57.30
65826;DHT22;52586;-43.152;172.732;2023-07-30T11:17:35;14.00;57.30
65826;DHT22;52586;-43.152;172.732;2023-07-30T11:20:06;14.00;57.30
65826;DHT22;52586;-43.152;172.732;2023-07-30T11:22:37;14.00;57.30
65826;DHT22;52586;-43.152;172.732;2023-07-30T11:25:17;14.00;57.30
65826;DHT22;52586;-43.152;172.732;2023-07-30T11:27:51;14.00;57.30
65826;DHT22;52586;-43.152;172.732;2023-07-30T11:30:21;14.00;57.20
65826;DHT22;52586;-43.152;172.732;2023-07-30T11:32:52;14.00;57.30
65826;DHT22;52586;-43.152;172.732;2023-07-30T11:35:23;13.90;57.20
65826;DHT22;52586;-43.152;172.732;2023-07-30T11:37:54;13.90;57.30
65826;DHT22;52586;-43.152;172.732;2023-07-30T11:40:25;13.90;57.30
65826;DHT22;52586;-43.152;172.732;2023-07-30T11:42:58;13.90;57.20
65826;DHT22;52586;-43.152;172.732;2023-07-30T11:45:29;13.90;57.20
65826;DHT22;52586;-43.152;172.732;2023-07-30T11:48:07;13.90;57.20
65826;DHT22;52586;-43.152;172.732;2023-07-30T11:50:48;13.90;57.20
65826;DHT22;52586;-43.152;172.732;2023-07-30T11:53:19;13.90;57.20
65826;DHT22;52586;-43.152;172.732;2023-07-30T11:55:49;13.80;57.20
65826;DHT22;52586;-43.152;172.732;2023-07-30T11:58:22;13.80;57.20
65826;DHT22;52586;-43.152;172.732;2023-07-30T12:00:58;13.80;57.20
65826;DHT22;52586;-43.152;172.732;2023-07-30T12:03:29;13.80;57.20
65826;DHT22;52586;-43.152;172.732;2023-07-30T12:06:05;13.80;57.20
65826;DHT22;52586;-43.152;172.732;2023-07-30T12:08:36;13.80;57.20
65826;DHT22;52586;-43.152;172.732;2023-07-30T12:11:08;13.70;57.20
65826;DHT22;52586;-43.152;172.732;2023-07-30T12:13:46;13.70;57.20
65826;DHT22;52586;-43.152;172.732;2023-07-30T12:16:18;13.70;57.30
65826;DHT22;52586;-43.152;172.732;2023-07-30T12:18:48;13.70;57.20
65826;DHT22;52586;-43.152;172.732;2023-07-30T12:21:19;13.70;57.20
65826;DHT22;52586;-43.152;172.732;2023-07-30T12:23:49;13.70;57.20
65826;DHT22;52586;-43.152;172.732;2023-07-30T12:26:20;13.70;57.20
65826;DHT22;52586;-43.152;172.732;2023-07-30T12:28:53;13.70;57.20
65826;DHT22;52586;-43.152;172.732;2023-07-30T12:31:23;13.70;57.20
65826;DHT22;52586;-43.152;172.732;2023-07-30T12:33:54;13.70;57.10
65826;DHT22;52586;-43.152;172.732;2023-07-30T12:36:25;13.70;57.20
65826;DHT22;52586;-43.152;172.732;2023-07-30T12:38:55;13.60;57.10
65826;DHT22;52586;-43.152;172.732;2023-07-30T12:41:26;13.60;57.10
65826;DHT22;52586;-43.152;172.732;2023-07-30T12:43:58;13.60;57.10
65826;DHT22;52586;-43.152;172.732;2023-07-30T12:46:31;13.60;57.10
65826;DHT22;52586;-43.152;172.732;2023-07-30T12:49:02;13.60;57.10
65826;DHT22;52586;-43.152;172.732;2023-07-30T12:51:32;13.60;57.10
65826;DHT22;52586;-43.152;172.732;2023-07-30T12:54:03;13.50;57.10
65826;DHT22;52586;-43.152;172.732;2023-07-30T12:56:34;13.50;57.10
65826;DHT22;52586;-43.152;172.732;2023-07-30T12:59:06;13.50;57.10
65826;DHT22;52586;-43.152;172.732;2023-07-30T13:01:37;13.50;57.10
65826;DHT22;52586;-43.152;172.732;2023-07-30T13:04:07;13.50;57.10
65826;DHT22;52586;-43.152;172.732;2023-07-30T13:06:38;13.50;57.10
65826;DHT22;52586;-43.152;172.732;2023-07-30T13:09:09;13.50;57.10
65826;DHT22;52586;-43.152;172.732;2023-07-30T13:11:39;13.50;57.10
65826;DHT22;52586;-43.152;172.732;2023-07-30T13:14:12;13.50;57.10
65826;DHT22;52586;-43.152;172.732;2023-07-30T13:16:42;13.40;57.00
65826;DHT22;52586;-43.152;172.732;2023-07-30T13:19:13;13.50;57.10
65826;DHT22;52586;-43.152;172.732;2023-07-30T13:21:44;13.40;57.00
65826;DHT22;52586;-43.152;172.732;2023-07-30T13:24:14;13.40;57.00
65826;DHT22;52586;-43.152;172.732;2023-07-30T13:26:45;13.40;57.00
65826;DHT22;52586;-43.152;172.732;2023-07-30T13:29:17;13.40;57.00
65826;DHT22;52586;-43.152;172.732;2023-07-30T13:31:48;13.30;57.00
65826;DHT22;52586;-43.152;172.732;2023-07-30T13:34:19;13.30;57.00
65826;DHT22;52586;-43.152;172.732;2023-07-30T13:36:50;13.30;56.90
65826;DHT22;52586;-43.152;172.732;2023-07-30T13:39:20;13.30;57.00
65826;DHT22;52586;-43.152;172.732;2023-07-30T13:41:51;13.30;57.00
65826;DHT22;52586;-43.152;172.732;2023-07-30T13:44:23;13.30;56.90
65826;DHT22;52586;-43.152;172.732;2023-07-30T13:46:54;13.30;57.00
65826;DHT22;52586;-43.152;172.732;2023-07-30T13:49:25;13.30;57.00
65826;DHT22;52586;-43.152;172.732;2023-07-30T13:51:55;13.20;56.90
65826;DHT22;52586;-43.152;172.732;2023-07-30T13:54:26;13.30;56.90
65826;DHT22;52586;-43.152;172.732;2023-07-30T13:56:57;13.20;56.90
65826;DHT22;52586;-43.152;172.732;2023-07-30T13:59:29;13.20;56.90
65826;DHT22;52586;-43.152;172.732;2023-07-30T14:02:00;13.20;56.90
65826;DHT22;52586;-43.152;172.732;2023-07-30T14:04:30;13.20;56.90
65826;DHT22;52586;-43.152;172.732;2023-07-30T14:07:01;13.20;56.90
65826;DHT22;52586;-43.152;172.732;2023-07-30T14:09:31;13.10;56.90
65826;DHT22;52586;-43.152;172.732;2023-07-30T14:12:04;13.20;56.90
65826;DHT22;52586;-43.152;172.732;2023-07-30T14:14:36;13.10;56.90
65826;DHT22;52586;-43.152;172.732;2023-07-30T14:17:07;13.10;56.90
65826;DHT22;52586;-43.152;172.732;2023-07-30T14:19:38;13.10;56.90
65826;DHT22;52586;-43.152;172.732;2023-07-30T14:22:08;13.10;56.90
65826;DHT22;52586;-43.152;172.732;2023-07-30T14:24:39;13.10;57.00
65826;DHT22;52586;-43.152;172.732;2023-07-30T14:27:11;13.00;56.90
65826;DHT22;52586;-43.152;172.732;2023-07-30T14:29:44;13.10;56.90
65826;DHT22;52586;-43.152;172.732;2023-07-30T14:32:15;13.00;56.90
65826;DHT22;52586;-43.152;172.732;2023-07-30T14:34:45;13.00;56.90
65826;DHT22;52586;-43.152;172.732;2023-07-30T14:37:16;13.00;56.90
65826;DHT22;52586;-43.152;172.732;2023-07-30T14:39:47;13.00;56.90
65826;DHT22;52586;-43.152;172.732;2023-07-30T14:42:17;13.00;56.80
65826;DHT22;52586;-43.152;172.732;2023-07-30T14:44:50;13.00;56.90
65826;DHT22;52586;-43.152;172.732;2023-07-30T14:47:20;13.00;56.90
65826;DHT22;52586;-43.152;172.732;2023-07-30T14:49:51;13.00;56.90
65826;DHT22;52586;-43.152;172.732;2023-07-30T14:52:22;12.90;56.80
65826;DHT22;52586;-43.152;172.732;2023-07-30T14:54:52;12.90;56.80
65826;DHT22;52586;-43.152;172.732;2023-07-30T14:57:23;12.90;56.80
65826;DHT22;52586;-43.152;172.732;2023-07-30T14:59:56;12.90;56.80
65826;DHT22;52586;-43.152;172.732;2023-07-30T15:02:28;12.90;56.90
65826;DHT22;52586;-43.152;172.732;2023-07-30T15:04:58;12.90;56.90
65826;DHT22;52586;-43.152;172.732;2023-07-30T15:07:29;12.90;56.90
65826;DHT22;52586;-43.152;172.732;2023-07-30T15:09:59;12.90;56.90
65826;DHT22;52586;-43.152;172.732;2023-07-30T15:12:30;12.80;56.80